sensor_id;sensor_type;location;lat;lon;timestamp;P1;durP1;ratioP1;P2;durP2;ratioP2
20423;SDS011;10371;49.042;8.002;2024-03-17T00:00:46;3.73;;;3.40;;
20423;SDS011;10371;49.042;8.002;2024-03-17T00:01:46;4.57;;;4.03;;
20423;SDS011;10371;49.042;8.002;2024-03-17T00:02:46;3.53;;;3.30;;
20423;SDS011;10371;49.042;8.002;2024-03-17T00:03:47;3.83;;;3.53;;
20423;SDS011;10371;49.042;8.002;2024-03-17T00:04:47;3.90;;;3.60;;
20423;SDS011;10371;49.042;8.002;2024-03-17T00:05:48;3.83;;;3.50;;
20423;SDS011;10371;49.042;8.002;2024-03-17T00:06:49;4.80;;;4.00;;
20423;SDS011;10371;49.042;8.002;2024-03-17T00:07:49;3.83;;;3.53;;
20423;SDS011;10371;49.042;8.002;2024-03-17T00:08:49;3.80;;;3.50;;
20423;SDS011;10371;49.042;8.002;2024-03-17T00:09:50;4.20;;;3.80;;
20423;SDS011;10371;49.042;8.002;2024-03-17T00:10:51;4.30;;;3.90;;
20423;SDS011;10371;49.042;8.002;2024-03-17T00:11:51;4.10;;;3.80;;
20423;SDS011;10371;49.042;8.002;2024-03-17T00:12:51;4.77;;;4.37;;
20423;SDS011;10371;49.042;8.002;2024-03-17T00:13:52;4.10;;;3.80;;
20423;SDS011;10371;49.042;8.002;2024-03-17T00:14:52;4.20;;;3.80;;
20423;SDS011;10371;49.042;8.002;2024-03-17T00:15:52;4.33;;;3.93;;
20423;SDS011;10371;49.042;8.002;2024-03-17T00:16:52;4.33;;;3.93;;
20423;SDS011;10371;49.042;8.002;2024-03-17T00:17:53;4.17;;;3.87;;
20423;SDS011;10371;49.042;8.002;2024-03-17T00:18:53;4.20;;;3.80;;
20423;SDS011;10371;49.042;8.002;2024-03-17T00:19:53;3.97;;;3.67;;
20423;SDS011;10371;49.042;8.002;2024-03-17T00:20:54;4.13;;;3.73;;
20423;SDS011;10371;49.042;8.002;2024-03-17T00:21:54;4.30;;;3.90;;
20423;SDS011;10371;49.042;8.002;2024-03-17T00:22:54;4.27;;;3.87;;
20423;SDS011;10371;49.042;8.002;2024-03-17T00:23:54;4.23;;;3.67;;
20423;SDS011;10371;49.042;8.002;2024-03-17T00:24:55;4.40;;;4.07;;
20423;SDS011;10371;49.042;8.002;2024-03-17T00:25:55;4.03;;;3.63;;
20423;SDS011;10371;49.042;8.002;2024-03-17T00:26:55;3.97;;;3.67;;
20423;SDS011;10371;49.042;8.002;2024-03-17T00:27:55;4.40;;;4.00;;
20423;SDS011;10371;49.042;8.002;2024-03-17T00:28:57;4.30;;;3.90;;
20423;SDS011;10371;49.042;8.002;2024-03-17T00:29:58;4.10;;;3.70;;
20423;SDS011;10371;49.042;8.002;2024-03-17T00:30:58;4.07;;;3.63;;
20423;SDS011;10371;49.042;8.002;2024-03-17T00:31:58;4.30;;;3.90;;
20423;SDS011;10371;49.042;8.002;2024-03-17T00:32:59;3.50;;;3.20;;
20423;SDS011;10371;49.042;8.002;2024-03-17T00:33:59;4.00;;;3.70;;
20423;SDS011;10371;49.042;8.002;2024-03-17T00:34:59;3.97;;;3.57;;
20423;SDS011;10371;49.042;8.002;2024-03-17T00:36:00;3.83;;;3.30;;
20423;SDS011;10371;49.042;8.002;2024-03-17T00:37:00;4.17;;;3.73;;
20423;SDS011;10371;49.042;8.002;2024-03-17T00:38:00;3.90;;;3.60;;
20423;SDS011;10371;49.042;8.002;2024-03-17T00:39:03;3.80;;;3.50;;
20423;SDS011;10371;49.042;8.002;2024-03-17T00:40:05;4.43;;;3.43;;
20423;SDS011;10371;49.042;8.002;2024-03-17T00:41:06;3.60;;;3.30;;
20423;SDS011;10371;49.042;8.002;2024-03-17T00:42:06;4.63;;;3.60;;
20423;SDS011;10371;49.042;8.002;2024-03-17T00:43:06;7.00;;;3.67;;
20423;SDS011;10371;49.042;8.002;2024-03-17T00:44:07;4.77;;;3.30;;
20423;SDS011;10371;49.042;8.002;2024-03-17T00:45:08;3.27;;;2.97;;
20423;SDS011;10371;49.042;8.002;2024-03-17T00:46:10;3.30;;;3.10;;
20423;SDS011;10371;49.042;8.002;2024-03-17T00:47:10;3.57;;;3.10;;
20423;SDS011;10371;49.042;8.002;2024-03-17T00:48:10;3.63;;;3.00;;
20423;SDS011;10371;49.042;8.002;2024-03-17T00:49:10;3.43;;;3.23;;
20423;SDS011;10371;49.042;8.002;2024-03-17T00:50:11;3.57;;;2.90;;
20423;SDS011;10371;49.042;8.002;2024-03-17T00:51:11;3.27;;;3.07;;
20423;SDS011;10371;49.042;8.002;2024-03-17T00:52:11;3.10;;;2.90;;
20423;SDS011;10371;49.042;8.002;2024-03-17T00:53:12;3.07;;;2.87;;
20423;SDS011;10371;49.042;8.002;2024-03-17T00:54:12;4.13;;;3.07;;
20423;SDS011;10371;49.042;8.002;2024-03-17T00:55:12;3.33;;;3.03;;
20423;SDS011;10371;49.042;8.002;2024-03-17T00:56:14;3.20;;;3.00;;
20423;SDS011;10371;49.042;8.002;2024-03-17T00:57:15;3.57;;;3.27;;
20423;SDS011;10371;49.042;8.002;2024-03-17T00:58:21;3.63;;;3.10;;
20423;SDS011;10371;49.042;8.002;2024-03-17T00:59:21;3.13;;;2.87;;
20423;SDS011;10371;49.042;8.002;2024-03-17T01:00:21;3.00;;;2.80;;
20423;SDS011;10371;49.042;8.002;2024-03-17T01:01:23;3.27;;;3.07;;
20423;SDS011;10371;49.042;8.002;2024-03-17T01:02:25;4.57;;;3.80;;
20423;SDS011;10371;49.042;8.002;2024-03-17T01:03:25;3.57;;;3.23;;
20423;SDS011;10371;49.042;8.002;2024-03-17T01:04:26;4.53;;;3.43;;
20423;SDS011;10371;49.042;8.002;2024-03-17T01:05:28;3.83;;;3.20;;
20423;SDS011;10371;49.042;8.002;2024-03-17T01:06:28;3.40;;;3.10;;
20423;SDS011;10371;49.042;8.002;2024-03-17T01:07:29;3.30;;;3.00;;
20423;SDS011;10371;49.042;8.002;2024-03-17T01:08:29;4.13;;;3.53;;
20423;SDS011;10371;49.042;8.002;2024-03-17T01:09:30;3.40;;;3.20;;
20423;SDS011;10371;49.042;8.002;2024-03-17T01:10:30;3.67;;;3.33;;
20423;SDS011;10371;49.042;8.002;2024-03-17T01:11:30;3.37;;;3.03;;
20423;SDS011;10371;49.042;8.002;2024-03-17T01:12:31;3.53;;;3.23;;
20423;SDS011;10371;49.042;8.002;2024-03-17T01:13:31;3.80;;;3.50;;
20423;SDS011;10371;49.042;8.002;2024-03-17T01:14:34;3.87;;;3.47;;
20423;SDS011;10371;49.042;8.002;2024-03-17T01:15:34;3.83;;;3.40;;
20423;SDS011;10371;49.042;8.002;2024-03-17T01:16:36;3.40;;;3.10;;
20423;SDS011;10371;49.042;8.002;2024-03-17T01:17:37;3.60;;;3.30;;
20423;SDS011;10371;49.042;8.002;2024-03-17T01:18:37;3.20;;;2.90;;
20423;SDS011;10371;49.042;8.002;2024-03-17T01:19:37;4.20;;;3.23;;
20423;SDS011;10371;49.042;8.002;2024-03-17T01:20:38;3.97;;;3.53;;
20423;SDS011;10371;49.042;8.002;2024-03-17T01:21:38;3.90;;;3.50;;
20423;SDS011;10371;49.042;8.002;2024-03-17T01:22:38;3.30;;;3.07;;
20423;SDS011;10371;49.042;8.002;2024-03-17T01:23:38;3.63;;;3.33;;
20423;SDS011;10371;49.042;8.002;2024-03-17T01:24:39;3.50;;;3.20;;
20423;SDS011;10371;49.042;8.002;2024-03-17T01:25:42;3.90;;;3.33;;
20423;SDS011;10371;49.042;8.002;2024-03-17T01:26:43;3.67;;;3.30;;
20423;SDS011;10371;49.042;8.002;2024-03-17T01:27:43;3.67;;;3.07;;
20423;SDS011;10371;49.042;8.002;2024-03-17T01:28:43;3.93;;;3.27;;
20423;SDS011;10371;49.042;8.002;2024-03-17T01:29:44;3.60;;;3.30;;
20423;SDS011;10371;49.042;8.002;2024-03-17T01:30:44;6.20;;;3.50;;
20423;SDS011;10371;49.042;8.002;2024-03-17T01:31:45;3.83;;;3.47;;
20423;SDS011;10371;49.042;8.002;2024-03-17T01:32:45;3.80;;;3.27;;
20423;SDS011;10371;49.042;8.002;2024-03-17T01:33:46;3.10;;;2.90;;
20423;SDS011;10371;49.042;8.002;2024-03-17T01:34:46;3.70;;;3.40;;
20423;SDS011;10371;49.042;8.002;2024-03-17T01:35:47;3.67;;;3.23;;
20423;SDS011;10371;49.042;8.002;2024-03-17T01:36:47;3.67;;;3.10;;
20423;SDS011;10371;49.042;8.002;2024-03-17T01:37:47;3.90;;;3.50;;
20423;SDS011;10371;49.042;8.002;2024-03-17T01:38:48;3.30;;;3.07;;
20423;SDS011;10371;49.042;8.002;2024-03-17T01:39:49;3.70;;;3.17;;
20423;SDS011;10371;49.042;8.002;2024-03-17T01:40:50;4.00;;;3.10;;
20423;SDS011;10371;49.042;8.002;2024-03-17T01:41:50;3.30;;;3.00;;
20423;SDS011;10371;49.042;8.002;2024-03-17T01:42:50;3.33;;;3.10;;
20423;SDS011;10371;49.042;8.002;2024-03-17T01:43:50;3.40;;;3.10;;
20423;SDS011;10371;49.042;8.002;2024-03-17T01:44:51;2.93;;;2.73;;
20423;SDS011;10371;49.042;8.002;2024-03-17T01:45:51;5.73;;;3.33;;
20423;SDS011;10371;49.042;8.002;2024-03-17T01:46:52;3.90;;;2.80;;
20423;SDS011;10371;49.042;8.002;2024-03-17T01:47:53;4.27;;;3.10;;
20423;SDS011;10371;49.042;8.002;2024-03-17T01:48:57;3.70;;;3.13;;
20423;SDS011;10371;49.042;8.002;2024-03-17T01:49:58;3.13;;;2.83;;
20423;SDS011;10371;49.042;8.002;2024-03-17T01:50:58;3.60;;;3.03;;
20423;SDS011;10371;49.042;8.002;2024-03-17T01:51:58;3.83;;;3.40;;
20423;SDS011;10371;49.042;8.002;2024-03-17T01:53:00;3.30;;;2.80;;
20423;SDS011;10371;49.042;8.002;2024-03-17T01:54:05;3.50;;;3.20;;
20423;SDS011;10371;49.042;8.002;2024-03-17T01:55:05;2.93;;;2.73;;
20423;SDS011;10371;49.042;8.002;2024-03-17T01:56:07;3.37;;;3.07;;
20423;SDS011;10371;49.042;8.002;2024-03-17T01:57:09;3.20;;;2.90;;
20423;SDS011;10371;49.042;8.002;2024-03-17T01:58:11;3.30;;;2.93;;
20423;SDS011;10371;49.042;8.002;2024-03-17T01:59:11;3.27;;;3.00;;
20423;SDS011;10371;49.042;8.002;2024-03-17T02:00:12;3.27;;;3.00;;
20423;SDS011;10371;49.042;8.002;2024-03-17T02:01:14;3.43;;;3.13;;
20423;SDS011;10371;49.042;8.002;2024-03-17T02:02:14;3.30;;;2.87;;
20423;SDS011;10371;49.042;8.002;2024-03-17T02:03:14;2.87;;;2.67;;
20423;SDS011;10371;49.042;8.002;2024-03-17T02:04:15;2.93;;;2.73;;
20423;SDS011;10371;49.042;8.002;2024-03-17T02:05:17;2.73;;;2.53;;
20423;SDS011;10371;49.042;8.002;2024-03-17T02:06:17;3.80;;;3.27;;
20423;SDS011;10371;49.042;8.002;2024-03-17T02:07:18;3.27;;;2.97;;
20423;SDS011;10371;49.042;8.002;2024-03-17T02:08:18;4.67;;;3.20;;
20423;SDS011;10371;49.042;8.002;2024-03-17T02:09:19;4.60;;;3.27;;
20423;SDS011;10371;49.042;8.002;2024-03-17T02:10:20;4.40;;;3.00;;
20423;SDS011;10371;49.042;8.002;2024-03-17T02:11:31;3.40;;;3.13;;
20423;SDS011;10371;49.042;8.002;2024-03-17T02:12:32;3.93;;;3.13;;
20423;SDS011;10371;49.042;8.002;2024-03-17T02:13:32;3.83;;;2.60;;
20423;SDS011;10371;49.042;8.002;2024-03-17T02:14:33;2.97;;;2.77;;
20423;SDS011;10371;49.042;8.002;2024-03-17T02:15:34;3.20;;;2.90;;
20423;SDS011;10371;49.042;8.002;2024-03-17T02:16:34;3.13;;;2.80;;
20423;SDS011;10371;49.042;8.002;2024-03-17T02:17:34;2.93;;;2.70;;
20423;SDS011;10371;49.042;8.002;2024-03-17T02:18:35;2.90;;;2.70;;
20423;SDS011;10371;49.042;8.002;2024-03-17T02:19:35;3.17;;;2.90;;
20423;SDS011;10371;49.042;8.002;2024-03-17T02:20:35;3.23;;;2.50;;
20423;SDS011;10371;49.042;8.002;2024-03-17T02:21:54;2.90;;;2.70;;
20423;SDS011;10371;49.042;8.002;2024-03-17T02:22:54;2.70;;;2.50;;
20423;SDS011;10371;49.042;8.002;2024-03-17T02:23:55;3.77;;;2.67;;
20423;SDS011;10371;49.042;8.002;2024-03-17T02:24:55;2.73;;;2.53;;
20423;SDS011;10371;49.042;8.002;2024-03-17T02:25:56;3.57;;;2.80;;
20423;SDS011;10371;49.042;8.002;2024-03-17T02:26:56;2.77;;;2.60;;
20423;SDS011;10371;49.042;8.002;2024-03-17T02:27:56;3.10;;;2.90;;
20423;SDS011;10371;49.042;8.002;2024-03-17T02:28:56;2.97;;;2.77;;
20423;SDS011;10371;49.042;8.002;2024-03-17T02:29:57;2.87;;;2.67;;
20423;SDS011;10371;49.042;8.002;2024-03-17T02:30:57;2.83;;;2.63;;
20423;SDS011;10371;49.042;8.002;2024-03-17T02:31:57;3.00;;;2.80;;
20423;SDS011;10371;49.042;8.002;2024-03-17T02:32:57;2.97;;;2.70;;
20423;SDS011;10371;49.042;8.002;2024-03-17T02:33:58;2.80;;;2.60;;
20423;SDS011;10371;49.042;8.002;2024-03-17T02:34:58;3.00;;;2.80;;
20423;SDS011;10371;49.042;8.002;2024-03-17T02:35:58;2.80;;;2.60;;
20423;SDS011;10371;49.042;8.002;2024-03-17T02:36:59;3.43;;;2.77;;
20423;SDS011;10371;49.042;8.002;2024-03-17T02:37:59;3.27;;;2.97;;
20423;SDS011;10371;49.042;8.002;2024-03-17T02:39:00;2.63;;;2.43;;
20423;SDS011;10371;49.042;8.002;2024-03-17T02:40:19;3.20;;;2.90;;
20423;SDS011;10371;49.042;8.002;2024-03-17T02:41:19;2.93;;;2.73;;
20423;SDS011;10371;49.042;8.002;2024-03-17T02:42:20;3.23;;;2.93;;
20423;SDS011;10371;49.042;8.002;2024-03-17T02:43:20;3.20;;;2.90;;
20423;SDS011;10371;49.042;8.002;2024-03-17T02:44:21;4.93;;;3.20;;
20423;SDS011;10371;49.042;8.002;2024-03-17T02:45:21;3.53;;;3.23;;
20423;SDS011;10371;49.042;8.002;2024-03-17T02:46:21;3.67;;;3.33;;
20423;SDS011;10371;49.042;8.002;2024-03-17T02:47:23;4.07;;;3.30;;
20423;SDS011;10371;49.042;8.002;2024-03-17T02:48:24;3.77;;;3.47;;
20423;SDS011;10371;49.042;8.002;2024-03-17T02:49:25;5.47;;;3.13;;
20423;SDS011;10371;49.042;8.002;2024-03-17T02:50:37;3.63;;;3.33;;
20423;SDS011;10371;49.042;8.002;2024-03-17T02:51:37;3.00;;;2.80;;
20423;SDS011;10371;49.042;8.002;2024-03-17T02:52:37;3.27;;;2.97;;
20423;SDS011;10371;49.042;8.002;2024-03-17T02:53:38;3.07;;;2.87;;
20423;SDS011;10371;49.042;8.002;2024-03-17T02:54:39;3.03;;;2.83;;
20423;SDS011;10371;49.042;8.002;2024-03-17T02:55:39;3.20;;;2.90;;
20423;SDS011;10371;49.042;8.002;2024-03-17T02:56:40;3.40;;;3.10;;
20423;SDS011;10371;49.042;8.002;2024-03-17T02:57:42;2.90;;;2.70;;
20423;SDS011;10371;49.042;8.002;2024-03-17T02:58:42;3.37;;;3.17;;
20423;SDS011;10371;49.042;8.002;2024-03-17T02:59:43;3.10;;;2.90;;
20423;SDS011;10371;49.042;8.002;2024-03-17T03:00:45;3.43;;;3.13;;
20423;SDS011;10371;49.042;8.002;2024-03-17T03:01:45;3.60;;;3.30;;
20423;SDS011;10371;49.042;8.002;2024-03-17T03:02:45;4.23;;;3.50;;
20423;SDS011;10371;49.042;8.002;2024-03-17T03:03:45;5.27;;;4.40;;
20423;SDS011;10371;49.042;8.002;2024-03-17T03:04:46;5.63;;;4.70;;
20423;SDS011;10371;49.042;8.002;2024-03-17T03:05:46;5.70;;;4.97;;
20423;SDS011;10371;49.042;8.002;2024-03-17T03:06:48;6.63;;;4.67;;
20423;SDS011;10371;49.042;8.002;2024-03-17T03:07:49;5.13;;;4.33;;
20423;SDS011;10371;49.042;8.002;2024-03-17T03:08:49;4.17;;;3.70;;
20423;SDS011;10371;49.042;8.002;2024-03-17T03:09:50;4.40;;;3.73;;
20423;SDS011;10371;49.042;8.002;2024-03-17T03:10:51;4.27;;;3.53;;
20423;SDS011;10371;49.042;8.002;2024-03-17T03:11:52;3.70;;;3.40;;
20423;SDS011;10371;49.042;8.002;2024-03-17T03:12:52;3.50;;;3.20;;
20423;SDS011;10371;49.042;8.002;2024-03-17T03:13:52;3.97;;;3.43;;
20423;SDS011;10371;49.042;8.002;2024-03-17T03:14:53;4.33;;;3.20;;
20423;SDS011;10371;49.042;8.002;2024-03-17T03:15:53;3.77;;;3.30;;
20423;SDS011;10371;49.042;8.002;2024-03-17T03:16:54;3.33;;;3.10;;
20423;SDS011;10371;49.042;8.002;2024-03-17T03:17:54;3.97;;;3.13;;
20423;SDS011;10371;49.042;8.002;2024-03-17T03:18:54;3.30;;;3.00;;
20423;SDS011;10371;49.042;8.002;2024-03-17T03:19:54;3.40;;;3.10;;
20423;SDS011;10371;49.042;8.002;2024-03-17T03:20:55;3.10;;;2.80;;
20423;SDS011;10371;49.042;8.002;2024-03-17T03:21:55;3.17;;;2.97;;
20423;SDS011;10371;49.042;8.002;2024-03-17T03:22:56;3.10;;;2.90;;
20423;SDS011;10371;49.042;8.002;2024-03-17T03:23:56;3.17;;;2.90;;
20423;SDS011;10371;49.042;8.002;2024-03-17T03:24:56;3.40;;;3.10;;
20423;SDS011;10371;49.042;8.002;2024-03-17T03:25:58;3.80;;;3.50;;
20423;SDS011;10371;49.042;8.002;2024-03-17T03:26:59;3.37;;;3.07;;
20423;SDS011;10371;49.042;8.002;2024-03-17T03:27:59;3.13;;;2.93;;
20423;SDS011;10371;49.042;8.002;2024-03-17T03:29:00;3.17;;;2.87;;
20423;SDS011;10371;49.042;8.002;2024-03-17T03:30:01;2.80;;;2.60;;
20423;SDS011;10371;49.042;8.002;2024-03-17T03:31:01;2.97;;;2.77;;
20423;SDS011;10371;49.042;8.002;2024-03-17T03:32:02;3.17;;;2.93;;
20423;SDS011;10371;49.042;8.002;2024-03-17T03:33:02;3.13;;;2.83;;
20423;SDS011;10371;49.042;8.002;2024-03-17T03:34:04;3.17;;;2.90;;
20423;SDS011;10371;49.042;8.002;2024-03-17T03:35:07;3.00;;;2.80;;
20423;SDS011;10371;49.042;8.002;2024-03-17T03:36:10;2.97;;;2.77;;
20423;SDS011;10371;49.042;8.002;2024-03-17T03:37:11;2.87;;;2.67;;
20423;SDS011;10371;49.042;8.002;2024-03-17T03:38:13;3.00;;;2.77;;
20423;SDS011;10371;49.042;8.002;2024-03-17T03:39:13;2.70;;;2.50;;
20423;SDS011;10371;49.042;8.002;2024-03-17T03:40:14;3.17;;;2.87;;
20423;SDS011;10371;49.042;8.002;2024-03-17T03:41:17;2.50;;;2.33;;
20423;SDS011;10371;49.042;8.002;2024-03-17T03:42:17;2.77;;;2.57;;
20423;SDS011;10371;49.042;8.002;2024-03-17T03:43:18;3.63;;;2.60;;
20423;SDS011;10371;49.042;8.002;2024-03-17T03:44:18;2.53;;;2.33;;
20423;SDS011;10371;49.042;8.002;2024-03-17T03:45:18;2.97;;;2.67;;
20423;SDS011;10371;49.042;8.002;2024-03-17T03:46:19;2.67;;;2.47;;
20423;SDS011;10371;49.042;8.002;2024-03-17T03:47:19;2.43;;;2.23;;
20423;SDS011;10371;49.042;8.002;2024-03-17T03:48:19;2.60;;;2.43;;
20423;SDS011;10371;49.042;8.002;2024-03-17T03:49:20;2.57;;;2.30;;
20423;SDS011;10371;49.042;8.002;2024-03-17T03:50:21;3.00;;;2.60;;
20423;SDS011;10371;49.042;8.002;2024-03-17T03:51:22;2.70;;;2.50;;
20423;SDS011;10371;49.042;8.002;2024-03-17T03:52:22;2.63;;;2.43;;
20423;SDS011;10371;49.042;8.002;2024-03-17T03:53:22;2.90;;;2.70;;
20423;SDS011;10371;49.042;8.002;2024-03-17T03:54:22;2.77;;;2.57;;
20423;SDS011;10371;49.042;8.002;2024-03-17T03:55:23;3.33;;;3.13;;
20423;SDS011;10371;49.042;8.002;2024-03-17T03:56:24;3.40;;;2.83;;
20423;SDS011;10371;49.042;8.002;2024-03-17T03:57:25;3.07;;;2.60;;
20423;SDS011;10371;49.042;8.002;2024-03-17T03:58:29;2.90;;;2.70;;
20423;SDS011;10371;49.042;8.002;2024-03-17T03:59:29;2.77;;;2.57;;
20423;SDS011;10371;49.042;8.002;2024-03-17T04:00:29;2.77;;;2.57;;
20423;SDS011;10371;49.042;8.002;2024-03-17T04:01:31;2.77;;;2.57;;
20423;SDS011;10371;49.042;8.002;2024-03-17T04:02:32;2.90;;;2.67;;
20423;SDS011;10371;49.042;8.002;2024-03-17T04:03:34;2.80;;;2.60;;
20423;SDS011;10371;49.042;8.002;2024-03-17T04:04:35;2.97;;;2.57;;
20423;SDS011;10371;49.042;8.002;2024-03-17T04:05:35;2.90;;;2.60;;
20423;SDS011;10371;49.042;8.002;2024-03-17T04:06:35;2.80;;;2.60;;
20423;SDS011;10371;49.042;8.002;2024-03-17T04:07:37;2.97;;;2.67;;
20423;SDS011;10371;49.042;8.002;2024-03-17T04:08:38;2.60;;;2.40;;
20423;SDS011;10371;49.042;8.002;2024-03-17T04:09:41;2.80;;;2.60;;
20423;SDS011;10371;49.042;8.002;2024-03-17T04:10:43;3.03;;;2.63;;
20423;SDS011;10371;49.042;8.002;2024-03-17T04:11:44;3.10;;;2.90;;
20423;SDS011;10371;49.042;8.002;2024-03-17T04:12:44;3.23;;;2.97;;
20423;SDS011;10371;49.042;8.002;2024-03-17T04:13:44;2.83;;;2.53;;
20423;SDS011;10371;49.042;8.002;2024-03-17T04:14:45;2.90;;;2.70;;
20423;SDS011;10371;49.042;8.002;2024-03-17T04:15:46;2.93;;;2.60;;
20423;SDS011;10371;49.042;8.002;2024-03-17T04:16:46;2.73;;;2.53;;
20423;SDS011;10371;49.042;8.002;2024-03-17T04:17:47;2.80;;;2.60;;
20423;SDS011;10371;49.042;8.002;2024-03-17T04:18:47;3.13;;;2.83;;
20423;SDS011;10371;49.042;8.002;2024-03-17T04:19:47;3.17;;;2.60;;
20423;SDS011;10371;49.042;8.002;2024-03-17T04:20:48;3.20;;;2.90;;
20423;SDS011;10371;49.042;8.002;2024-03-17T04:21:48;3.37;;;3.07;;
20423;SDS011;10371;49.042;8.002;2024-03-17T04:22:49;3.27;;;2.90;;
20423;SDS011;10371;49.042;8.002;2024-03-17T04:23:49;4.00;;;3.17;;
20423;SDS011;10371;49.042;8.002;2024-03-17T04:24:50;4.30;;;3.37;;
20423;SDS011;10371;49.042;8.002;2024-03-17T04:25:54;4.40;;;3.57;;
20423;SDS011;10371;49.042;8.002;2024-03-17T04:26:54;4.07;;;3.47;;
20423;SDS011;10371;49.042;8.002;2024-03-17T04:27:54;4.40;;;3.87;;
20423;SDS011;10371;49.042;8.002;2024-03-17T04:28:55;3.93;;;3.63;;
20423;SDS011;10371;49.042;8.002;2024-03-17T04:29:56;4.43;;;3.70;;
20423;SDS011;10371;49.042;8.002;2024-03-17T04:31:03;3.90;;;3.50;;
20423;SDS011;10371;49.042;8.002;2024-03-17T04:32:06;3.53;;;3.23;;
20423;SDS011;10371;49.042;8.002;2024-03-17T04:33:06;3.90;;;3.50;;
20423;SDS011;10371;49.042;8.002;2024-03-17T04:34:07;4.60;;;3.50;;
20423;SDS011;10371;49.042;8.002;2024-03-17T04:35:07;4.20;;;3.20;;
20423;SDS011;10371;49.042;8.002;2024-03-17T04:36:07;3.80;;;3.50;;
20423;SDS011;10371;49.042;8.002;2024-03-17T04:37:09;3.50;;;3.20;;
20423;SDS011;10371;49.042;8.002;2024-03-17T04:38:12;3.03;;;2.70;;
20423;SDS011;10371;49.042;8.002;2024-03-17T04:39:14;3.67;;;3.00;;
20423;SDS011;10371;49.042;8.002;2024-03-17T04:40:14;3.57;;;3.27;;
20423;SDS011;10371;49.042;8.002;2024-03-17T04:41:17;3.17;;;2.87;;
20423;SDS011;10371;49.042;8.002;2024-03-17T04:42:18;3.00;;;2.70;;
20423;SDS011;10371;49.042;8.002;2024-03-17T04:43:19;4.43;;;4.03;;
20423;SDS011;10371;49.042;8.002;2024-03-17T04:44:20;5.10;;;4.70;;
20423;SDS011;10371;49.042;8.002;2024-03-17T04:45:21;5.20;;;4.80;;
20423;SDS011;10371;49.042;8.002;2024-03-17T04:46:21;5.57;;;5.07;;
20423;SDS011;10371;49.042;8.002;2024-03-17T04:47:22;5.03;;;4.60;;
20423;SDS011;10371;49.042;8.002;2024-03-17T04:48:22;5.20;;;4.80;;
20423;SDS011;10371;49.042;8.002;2024-03-17T04:49:22;4.87;;;4.47;;
20423;SDS011;10371;49.042;8.002;2024-03-17T04:50:23;4.17;;;3.87;;
20423;SDS011;10371;49.042;8.002;2024-03-17T04:51:23;5.60;;;3.27;;
20423;SDS011;10371;49.042;8.002;2024-03-17T04:52:23;3.63;;;3.33;;
20423;SDS011;10371;49.042;8.002;2024-03-17T04:53:24;3.13;;;2.87;;
20423;SDS011;10371;49.042;8.002;2024-03-17T04:54:24;3.53;;;2.90;;
20423;SDS011;10371;49.042;8.002;2024-03-17T04:55:24;3.03;;;2.83;;
20423;SDS011;10371;49.042;8.002;2024-03-17T04:56:25;2.83;;;2.63;;
20423;SDS011;10371;49.042;8.002;2024-03-17T04:57:25;2.70;;;2.50;;
20423;SDS011;10371;49.042;8.002;2024-03-17T04:58:26;2.83;;;2.57;;
20423;SDS011;10371;49.042;8.002;2024-03-17T04:59:26;3.20;;;2.80;;
20423;SDS011;10371;49.042;8.002;2024-03-17T05:00:27;3.00;;;2.77;;
20423;SDS011;10371;49.042;8.002;2024-03-17T05:01:27;3.10;;;2.80;;
20423;SDS011;10371;49.042;8.002;2024-03-17T05:02:27;2.67;;;2.47;;
20423;SDS011;10371;49.042;8.002;2024-03-17T05:03:28;2.90;;;2.70;;
20423;SDS011;10371;49.042;8.002;2024-03-17T05:04:28;3.10;;;2.87;;
20423;SDS011;10371;49.042;8.002;2024-03-17T05:05:30;2.80;;;2.60;;
20423;SDS011;10371;49.042;8.002;2024-03-17T05:06:30;2.83;;;2.63;;
20423;SDS011;10371;49.042;8.002;2024-03-17T05:07:31;3.60;;;2.60;;
20423;SDS011;10371;49.042;8.002;2024-03-17T05:08:31;3.13;;;2.93;;
20423;SDS011;10371;49.042;8.002;2024-03-17T05:09:33;3.13;;;2.87;;
20423;SDS011;10371;49.042;8.002;2024-03-17T05:10:33;3.50;;;2.80;;
20423;SDS011;10371;49.042;8.002;2024-03-17T05:11:33;3.00;;;2.80;;
20423;SDS011;10371;49.042;8.002;2024-03-17T05:12:35;3.13;;;2.93;;
20423;SDS011;10371;49.042;8.002;2024-03-17T05:13:35;2.90;;;2.70;;
20423;SDS011;10371;49.042;8.002;2024-03-17T05:14:38;2.83;;;2.60;;
20423;SDS011;10371;49.042;8.002;2024-03-17T05:15:38;3.30;;;3.00;;
20423;SDS011;10371;49.042;8.002;2024-03-17T05:16:39;3.23;;;2.80;;
20423;SDS011;10371;49.042;8.002;2024-03-17T05:17:39;3.30;;;2.80;;
20423;SDS011;10371;49.042;8.002;2024-03-17T05:18:39;5.17;;;3.47;;
20423;SDS011;10371;49.042;8.002;2024-03-17T05:19:40;3.70;;;3.40;;
20423;SDS011;10371;49.042;8.002;2024-03-17T05:20:40;3.93;;;3.53;;
20423;SDS011;10371;49.042;8.002;2024-03-17T05:21:40;4.30;;;3.00;;
20423;SDS011;10371;49.042;8.002;2024-03-17T05:22:40;4.23;;;3.10;;
20423;SDS011;10371;49.042;8.002;2024-03-17T05:23:41;3.20;;;3.00;;
20423;SDS011;10371;49.042;8.002;2024-03-17T05:24:42;3.57;;;3.27;;
20423;SDS011;10371;49.042;8.002;2024-03-17T05:25:50;3.47;;;3.03;;
20423;SDS011;10371;49.042;8.002;2024-03-17T05:26:51;4.03;;;2.70;;
20423;SDS011;10371;49.042;8.002;2024-03-17T05:27:51;3.40;;;3.10;;
20423;SDS011;10371;49.042;8.002;2024-03-17T05:28:51;3.40;;;3.10;;
20423;SDS011;10371;49.042;8.002;2024-03-17T05:29:52;3.27;;;2.97;;
20423;SDS011;10371;49.042;8.002;2024-03-17T05:30:52;4.20;;;3.40;;
20423;SDS011;10371;49.042;8.002;2024-03-17T05:31:53;3.30;;;3.07;;
20423;SDS011;10371;49.042;8.002;2024-03-17T05:32:53;3.23;;;3.03;;
20423;SDS011;10371;49.042;8.002;2024-03-17T05:33:53;3.33;;;3.03;;
20423;SDS011;10371;49.042;8.002;2024-03-17T05:34:53;3.87;;;3.57;;
20423;SDS011;10371;49.042;8.002;2024-03-17T05:35:55;3.80;;;3.50;;
20423;SDS011;10371;49.042;8.002;2024-03-17T05:36:57;4.00;;;3.70;;
20423;SDS011;10371;49.042;8.002;2024-03-17T05:37:57;3.70;;;3.40;;
20423;SDS011;10371;49.042;8.002;2024-03-17T05:38:58;3.50;;;3.27;;
20423;SDS011;10371;49.042;8.002;2024-03-17T05:39:59;4.23;;;3.93;;
20423;SDS011;10371;49.042;8.002;2024-03-17T05:41:00;4.27;;;3.87;;
20423;SDS011;10371;49.042;8.002;2024-03-17T05:42:02;6.90;;;4.43;;
20423;SDS011;10371;49.042;8.002;2024-03-17T05:43:03;4.60;;;4.20;;
20423;SDS011;10371;49.042;8.002;2024-03-17T05:44:04;6.47;;;4.60;;
20423;SDS011;10371;49.042;8.002;2024-03-17T05:45:04;5.47;;;4.80;;
20423;SDS011;10371;49.042;8.002;2024-03-17T05:46:05;5.70;;;4.50;;
20423;SDS011;10371;49.042;8.002;2024-03-17T05:47:11;5.47;;;5.00;;
20423;SDS011;10371;49.042;8.002;2024-03-17T05:48:12;7.47;;;4.73;;
20423;SDS011;10371;49.042;8.002;2024-03-17T05:49:13;5.90;;;4.97;;
20423;SDS011;10371;49.042;8.002;2024-03-17T05:50:13;5.20;;;4.80;;
20423;SDS011;10371;49.042;8.002;2024-03-17T05:51:13;5.27;;;4.77;;
20423;SDS011;10371;49.042;8.002;2024-03-17T05:52:16;5.67;;;5.10;;
20423;SDS011;10371;49.042;8.002;2024-03-17T05:53:16;5.87;;;4.60;;
20423;SDS011;10371;49.042;8.002;2024-03-17T05:54:18;5.23;;;4.73;;
20423;SDS011;10371;49.042;8.002;2024-03-17T05:55:18;5.33;;;4.83;;
20423;SDS011;10371;49.042;8.002;2024-03-17T05:56:18;5.93;;;5.43;;
20423;SDS011;10371;49.042;8.002;2024-03-17T05:57:19;5.17;;;4.77;;
20423;SDS011;10371;49.042;8.002;2024-03-17T05:58:19;5.10;;;4.70;;
20423;SDS011;10371;49.042;8.002;2024-03-17T05:59:19;6.00;;;5.40;;
20423;SDS011;10371;49.042;8.002;2024-03-17T06:00:19;5.20;;;4.80;;
20423;SDS011;10371;49.042;8.002;2024-03-17T06:01:20;5.43;;;4.90;;
20423;SDS011;10371;49.042;8.002;2024-03-17T06:02:22;5.30;;;4.80;;
20423;SDS011;10371;49.042;8.002;2024-03-17T06:03:22;5.17;;;4.47;;
20423;SDS011;10371;49.042;8.002;2024-03-17T06:04:23;5.13;;;4.73;;
20423;SDS011;10371;49.042;8.002;2024-03-17T06:05:24;5.30;;;4.53;;
20423;SDS011;10371;49.042;8.002;2024-03-17T06:06:24;5.10;;;4.70;;
20423;SDS011;10371;49.042;8.002;2024-03-17T06:07:24;6.00;;;4.90;;